Observations
| Time | Sensor | AQI | SAQ | Temp °C | Hum % | Pres Pa | CO μg/m³ | H₂S μg/m³ | NO μg/m³ | NO₂ μg/m³ | O₃ μg/m³ | SO₂ μg/m³ | CO₂e PPM | VOC PPM | PM1 μg/m³ | PM2.5 μg/m³ | PM4 μg/m³ | PM10 μg/m³ | TPS µm |
|---|---|---|---|---|---|---|---|---|---|---|---|---|---|---|---|---|---|---|---|
| Tuesday 11 August 2026 | |||||||||||||||||||
| 20:34 | Trim Patrick St | 3 | 27.1 | 37 | 69,175 | 0 | 29.38 | 0.84 | 45.41 | 57.53 | 16.64 | 4.57 | 12.01 | 13.21 | |||||
| 20:34 | Trim Market St | 3 | 27 | 37 | 65,970 | 0 | 10.81 | 0.88 | 32.17 | 57.06 | 0 | 1.43 | 4.62 | 5.88 | |||||
| 20:33 | Trim Patrick St | 3 | 27.2 | 37 | 69,171 | 0 | 30.1 | 0.82 | 38.21 | 48.27 | 17.02 | 4.57 | 10.41 | 11.45 | |||||
| 20:33 | Trim Market St | 3 | 27 | 37 | 65,974 | 0 | 11.16 | 0.88 | 32.8 | 58.25 | 0 | 2.14 | 5.69 | 5.88 | |||||
| 20:32 | Trim Patrick St | 3 | 27.3 | 38 | 69,171 | 0 | 30.79 | 0.8 | 35.82 | 60.73 | 17.18 | 4.57 | 11.12 | 12.23 | |||||
| 20:32 | Trim Market St | 3 | 27 | 37 | 65,977 | 0 | 10.33 | 0.88 | 30.22 | 57.56 | 0 | 1.43 | 4.63 | 5.09 | |||||
| 20:31 | Trim Patrick St | 3 | 27.4 | 38 | 69,191 | 0 | 30.79 | 0.78 | 43.33 | 50.85 | 17.46 | 5.43 | 11.12 | 12.23 | |||||
| 20:31 | Trim Market St | 3 | 27.1 | 36 | 65,983 | 0 | 10.97 | 0.86 | 39.15 | 59.07 | 0 | 2.14 | 4.63 | 5.1 | |||||
| 20:30 | Trim Patrick St | 3 | 27.5 | 36 | 69,193 | 0 | 29.61 | 0.79 | 38.73 | 60.01 | 17.29 | 5.43 | 12.05 | 13.25 | |||||
| 20:30 | Trim Market St | 3 | 27.1 | 36 | 65,987 | 0 | 9.8 | 0.87 | 32.84 | 56.61 | 0 | 1.43 | 4.64 | 5.1 | |||||
| 20:29 | Trim Patrick St | 3 | 27.5 | 36 | 69,193 | 0 | 29.24 | 0.8 | 37.11 | 49.41 | 16.94 | 6.29 | 11.28 | 12.4 | |||||
| 20:29 | Trim Market St | 3 | 27.2 | 36 | 66,023 | 0 | 11.93 | 0.83 | 34.74 | 57.26 | 0 | 2.85 | 6.24 | 6.7 | |||||
| 20:28 | Trim Patrick St | 3 | 27.6 | 37 | 69,195 | 0 | 29.85 | 0.77 | 39.11 | 55.97 | 17.29 | 5.43 | 11.17 | 12.28 | |||||
| 20:28 | Trim Market St | 3 | 27.2 | 36 | 66,011 | 0 | 12.89 | 0.84 | 36.01 | 54.31 | 0 | 3.56 | 6.25 | 7.53 | |||||
| 20:27 | Trim Patrick St | 3 | 27.6 | 37 | 69,197 | 0 | 31.16 | 0.76 | 41.21 | 57.01 | 17.61 | 5.43 | 11.96 | 13.15 | |||||
| 20:27 | Trim Market St | 3 | 27.2 | 36 | 65,995 | 0 | 13.77 | 0.85 | 47.53 | 50.99 | 0 | 3.56 | 8.39 | 10.84 | |||||
| 20:26 | Trim Patrick St | 3 | 27.7 | 37 | 69,197 | 0 | 31.64 | 0.75 | 47.75 | 47.94 | 17.17 | 4.57 | 10.39 | 11.43 | |||||
| 20:26 | Trim Market St | 3 | 27.3 | 36 | 66,001 | 0 | 10.75 | 0.84 | 40.53 | 58.61 | 0 | 2.14 | 5.2 | 5.72 | |||||
| 20:25 | Trim Patrick St | 3 | 27.8 | 37 | 69,197 | 0 | 30.43 | 0.74 | 42.25 | 53.15 | 17.7 | 4.57 | 10.43 | 11.47 | |||||
| 20:25 | Trim Market St | 3 | 27.3 | 36 | 66,009 | 0 | 9.52 | 0.84 | 32.94 | 57.33 | 0 | 3.56 | 5.74 | 6.7 | |||||